createdAt,value
2019-05-15T00:01:08.200Z,6.00
2019-05-15T00:03:38.841Z,6.10
2019-05-15T00:06:08.515Z,6.30
2019-05-15T00:08:38.683Z,6.30
2019-05-15T00:11:08.320Z,6.20
2019-05-15T00:13:39.010Z,6.30
2019-05-15T00:16:08.472Z,6.40
2019-05-15T00:18:39.096Z,6.40
2019-05-15T00:21:09.224Z,6.30
2019-05-15T00:23:38.703Z,6.50
2019-05-15T00:26:09.245Z,6.40
2019-05-15T00:28:38.870Z,6.20
2019-05-15T00:31:09.009Z,6.30
2019-05-15T00:33:39.367Z,6.40
2019-05-15T00:36:08.679Z,6.20
2019-05-15T00:38:39.012Z,6.20
2019-05-15T00:41:09.546Z,6.20
2019-05-15T00:43:38.666Z,6.10
2019-05-15T00:46:09.138Z,6.30
2019-05-15T00:48:39.855Z,6.20
2019-05-15T00:51:08.486Z,6.30
2019-05-15T00:53:38.995Z,6.40
2019-05-15T00:56:08.933Z,6.50
2019-05-15T01:01:15.704Z,6.40
2019-05-15T01:03:44.125Z,6.40
2019-05-15T01:06:12.660Z,6.50
2019-05-15T01:08:41.211Z,6.40
2019-05-15T01:11:09.630Z,6.30
2019-05-15T01:13:38.886Z,6.30
2019-05-15T01:16:09.109Z,6.30
2019-05-15T01:18:38.608Z,6.30
2019-05-15T01:21:08.450Z,6.40
2019-05-15T01:23:39.042Z,6.40
2019-05-15T01:26:08.276Z,6.50
2019-05-15T01:28:38.411Z,6.40
2019-05-15T01:31:08.480Z,6.40
2019-05-15T01:33:39.104Z,6.40
2019-05-15T01:36:08.522Z,6.30
2019-05-15T01:38:38.874Z,6.30
2019-05-15T01:41:09.702Z,6.40
2019-05-15T01:43:38.228Z,6.50
2019-05-15T01:46:08.404Z,6.30
2019-05-15T01:48:38.789Z,6.30
2019-05-15T01:51:09.410Z,6.30
2019-05-15T01:53:38.495Z,6.30
2019-05-15T01:56:08.451Z,6.10
2019-05-15T01:58:38.253Z,6.00
2019-05-15T02:01:08.158Z,6.10
2019-05-15T02:03:38.514Z,6.00
2019-05-15T02:06:08.185Z,6.00
2019-05-15T02:08:39.380Z,6.00
2019-05-15T02:11:09.215Z,6.00
2019-05-15T02:13:38.918Z,6.00
2019-05-15T02:16:08.420Z,6.00
2019-05-15T02:18:39.191Z,5.90
2019-05-15T02:21:09.951Z,5.90
2019-05-15T02:23:38.782Z,5.80
2019-05-15T02:26:08.002Z,5.80
2019-05-15T02:28:38.381Z,5.80
2019-05-15T02:31:10.184Z,5.80
2019-05-15T02:33:40.013Z,5.70
2019-05-15T02:36:09.780Z,5.80
2019-05-15T02:38:40.848Z,5.80
2019-05-15T02:41:09.922Z,5.80
2019-05-15T02:43:39.026Z,5.80
2019-05-15T02:46:10.011Z,6.00
2019-05-15T02:48:40.858Z,6.00
2019-05-15T02:51:09.754Z,5.80
2019-05-15T02:53:39.788Z,5.90
2019-05-15T02:56:09.302Z,5.70
2019-05-15T02:58:39.791Z,5.80
2019-05-15T03:01:09.340Z,5.80
2019-05-15T03:03:39.009Z,5.60
2019-05-15T03:06:09.996Z,5.80
2019-05-15T03:08:39.900Z,6.00
2019-05-15T03:11:09.808Z,5.80
2019-05-15T03:13:39.355Z,5.70
2019-05-15T03:16:10.209Z,5.60
2019-05-15T03:18:39.672Z,5.70
2019-05-15T03:21:09.545Z,5.70
2019-05-15T03:23:40.560Z,5.70
2019-05-15T03:26:09.174Z,5.70
2019-05-15T03:28:39.294Z,5.60
2019-05-15T03:31:25.925Z,5.60
2019-05-15T03:33:44.834Z,5.70
2019-05-15T03:36:13.137Z,5.70
2019-05-15T03:38:39.530Z,5.80
2019-05-15T03:41:10.180Z,5.80
2019-05-15T03:46:15.596Z,5.80
2019-05-15T03:48:44.088Z,5.80
2019-05-15T03:51:12.518Z,5.80
2019-05-15T03:53:41.069Z,5.80
2019-05-15T03:56:10.076Z,5.70
2019-05-15T03:58:40.091Z,5.60
2019-05-15T04:01:27.805Z,5.80
2019-05-15T04:03:39.199Z,5.90
2019-05-15T04:06:10.161Z,5.80
2019-05-15T04:08:39.297Z,5.80
2019-05-15T04:11:09.145Z,5.90
2019-05-15T04:13:39.597Z,5.90
2019-05-15T04:16:10.398Z,6.00
2019-05-15T04:18:39.639Z,6.00
2019-05-15T04:21:09.213Z,5.80
2019-05-15T04:23:39.095Z,5.80
2019-05-15T04:26:09.241Z,5.90
2019-05-15T04:28:41.606Z,6.00
2019-05-15T04:31:10.583Z,5.90
2019-05-15T04:33:40.030Z,5.90
2019-05-15T04:36:09.752Z,6.00
2019-05-15T04:38:39.440Z,6.00
2019-05-15T04:41:09.602Z,6.10
2019-05-15T04:46:10.647Z,6.10
2019-05-15T04:48:39.921Z,6.00
2019-05-15T04:51:09.709Z,6.00
2019-05-15T04:53:39.617Z,6.20
2019-05-15T04:56:09.418Z,6.40
2019-05-15T04:58:39.415Z,6.50
2019-05-15T05:01:09.523Z,6.50
2019-05-15T05:03:39.423Z,6.60
2019-05-15T05:06:09.696Z,6.70
2019-05-15T05:08:39.682Z,6.80
2019-05-15T05:11:09.747Z,6.80
2019-05-15T05:13:39.240Z,6.70
2019-05-15T05:16:09.578Z,6.50
2019-05-15T05:18:41.022Z,6.70
2019-05-15T05:21:08.523Z,6.60
2019-05-15T05:23:37.809Z,6.60
2019-05-15T05:26:10.551Z,6.70
2019-05-15T05:28:38.113Z,6.70
2019-05-15T05:31:08.477Z,6.80
2019-05-15T05:33:38.189Z,6.90
2019-05-15T05:36:07.874Z,7.00
2019-05-15T05:38:38.798Z,7.10
2019-05-15T05:41:08.185Z,7.20
2019-05-15T05:43:38.365Z,7.20
2019-05-15T05:46:09.345Z,7.10
2019-05-15T05:48:38.332Z,7.30
2019-05-15T05:51:09.210Z,7.30
2019-05-15T05:53:38.304Z,7.20
2019-05-15T05:56:08.961Z,7.40
2019-05-15T05:58:38.943Z,7.50
2019-05-15T06:01:09.274Z,7.30
2019-05-15T06:03:38.617Z,7.30
2019-05-15T06:06:09.870Z,7.50
2019-05-15T06:08:38.924Z,7.60
2019-05-15T06:11:09.846Z,7.70
2019-05-15T06:13:38.290Z,7.60
2019-05-15T06:16:08.442Z,7.60
2019-05-15T06:18:38.743Z,7.90
2019-05-15T06:21:09.146Z,8.20
2019-05-15T06:23:44.255Z,8.40
2019-05-15T06:26:09.576Z,8.50
2019-05-15T06:28:39.436Z,8.70
2019-05-15T06:31:08.878Z,8.70
2019-05-15T06:33:38.450Z,8.30
2019-05-15T06:36:09.006Z,8.50
2019-05-15T06:38:39.411Z,8.70
2019-05-15T06:41:08.711Z,8.90
2019-05-15T06:43:38.842Z,8.90
2019-05-15T06:46:09.200Z,9.20
2019-05-15T06:48:38.063Z,9.10
2019-05-15T06:51:08.875Z,9.20
2019-05-15T06:53:38.482Z,9.30
2019-05-15T06:56:07.928Z,9.00
2019-05-15T06:58:38.469Z,8.90
2019-05-15T07:01:08.723Z,8.80
2019-05-15T07:03:39.248Z,9.00
2019-05-15T07:06:09.352Z,9.00
2019-05-15T07:08:38.334Z,9.00
2019-05-15T07:11:08.726Z,9.10
2019-05-15T07:13:38.251Z,9.10
2019-05-15T07:16:08.138Z,9.10
2019-05-15T07:18:38.949Z,9.10
2019-05-15T07:21:10.187Z,9.20
2019-05-15T07:23:38.715Z,9.30
2019-05-15T07:26:09.433Z,9.30
2019-05-15T07:28:38.103Z,9.30
2019-05-15T07:31:11.308Z,9.40
2019-05-15T07:33:43.256Z,9.50
2019-05-15T07:36:08.378Z,9.40
2019-05-15T07:38:39.178Z,9.50
2019-05-15T07:41:10.234Z,9.70
2019-05-15T07:43:38.439Z,9.90
2019-05-15T07:46:08.470Z,10.00
2019-05-15T07:48:38.403Z,10.10
2019-05-15T07:51:11.675Z,10.30
2019-05-15T07:53:38.463Z,10.20
2019-05-15T07:56:11.388Z,10.50
2019-05-15T07:58:38.627Z,11.00
2019-05-15T08:01:09.652Z,11.30
2019-05-15T08:03:47.105Z,12.00
2019-05-15T08:06:08.804Z,12.50
2019-05-15T08:08:39.392Z,13.10
2019-05-15T08:11:17.714Z,13.60
2019-05-15T08:13:38.284Z,14.50
2019-05-15T08:16:08.599Z,15.10
2019-05-15T08:18:39.261Z,15.30
2019-05-15T08:21:08.981Z,16.30
2019-05-15T08:23:39.148Z,17.00
2019-05-15T08:26:08.757Z,18.40
2019-05-15T08:28:38.230Z,18.60
2019-05-15T08:31:10.173Z,18.90
2019-05-15T08:33:38.946Z,18.80
2019-05-15T08:36:08.376Z,18.30
2019-05-15T08:38:38.334Z,17.80
2019-05-15T08:41:11.158Z,17.50
2019-05-15T08:43:38.255Z,17.80
2019-05-15T08:46:08.236Z,16.70
2019-05-15T08:48:38.395Z,16.40
2019-05-15T08:51:08.751Z,15.80
2019-05-15T08:53:37.994Z,16.20
2019-05-15T08:56:08.457Z,15.40
2019-05-15T08:58:38.176Z,15.00
2019-05-15T09:01:09.885Z,15.00
2019-05-15T09:03:38.091Z,14.80
2019-05-15T09:06:08.857Z,14.00
2019-05-15T09:08:39.079Z,14.00
2019-05-15T09:11:08.785Z,13.90
2019-05-15T09:13:42.714Z,13.70
2019-05-15T09:16:08.253Z,13.10
2019-05-15T09:18:38.902Z,13.30
2019-05-15T09:21:08.842Z,13.20
2019-05-15T09:23:38.893Z,12.90
2019-05-15T09:26:09.205Z,13.10
2019-05-15T09:28:39.007Z,12.90
2019-05-15T09:31:08.357Z,13.00
2019-05-15T09:33:38.756Z,13.30
2019-05-15T09:36:09.122Z,13.20
2019-05-15T09:38:39.128Z,12.80
2019-05-15T09:41:08.916Z,12.40
2019-05-15T09:43:38.527Z,12.40
2019-05-15T09:46:10.426Z,12.70
2019-05-15T09:48:39.275Z,12.70
2019-05-15T09:51:09.224Z,12.80
2019-05-15T09:53:39.343Z,13.00
2019-05-15T09:56:08.226Z,13.50
2019-05-15T09:58:38.196Z,13.40
2019-05-15T10:01:08.513Z,13.10
2019-05-15T10:03:39.496Z,13.40
2019-05-15T10:06:08.187Z,13.50
2019-05-15T10:08:39.507Z,13.80
2019-05-15T10:11:09.177Z,13.90
2019-05-15T10:13:38.402Z,14.20
2019-05-15T10:16:08.391Z,14.60
2019-05-15T10:18:38.996Z,14.60
2019-05-15T10:21:08.952Z,14.50
2019-05-15T10:23:40.343Z,14.70
2019-05-15T10:26:14.016Z,15.20
2019-05-15T10:28:39.205Z,15.30
2019-05-15T10:31:09.446Z,15.20
2019-05-15T10:33:39.425Z,15.30
2019-05-15T10:36:08.397Z,15.10
2019-05-15T10:38:39.128Z,15.00
2019-05-15T10:41:11.230Z,14.90
2019-05-15T10:43:44.567Z,14.60
2019-05-15T10:46:13.347Z,14.70
2019-05-15T10:48:38.646Z,14.70
2019-05-15T10:51:10.290Z,14.60
2019-05-15T10:53:39.112Z,14.80
2019-05-15T10:56:08.932Z,15.00
2019-05-15T10:58:39.299Z,15.60
2019-05-15T11:01:11.284Z,15.80
2019-05-15T11:03:40.064Z,16.10
2019-05-15T11:06:09.145Z,16.20
2019-05-15T11:08:40.334Z,16.20
2019-05-15T11:11:09.149Z,16.70
2019-05-15T11:13:38.239Z,16.00
2019-05-15T11:16:06.958Z,16.20
2019-05-15T11:18:35.520Z,15.70
2019-05-15T11:21:04.239Z,15.70
2019-05-15T11:23:33.604Z,15.90
2019-05-15T11:26:02.033Z,16.20
2019-05-15T11:28:32.318Z,16.30
2019-05-15T11:31:00.826Z,17.20
2019-05-15T11:33:29.542Z,17.60
2019-05-15T11:36:05.528Z,18.70
2019-05-15T11:38:29.057Z,19.50
2019-05-15T11:40:57.814Z,18.80
2019-05-15T11:43:28.931Z,18.40
2019-05-15T11:45:58.837Z,17.50
2019-05-15T11:48:29.578Z,16.70
2019-05-15T11:50:57.065Z,16.10
2019-05-15T11:53:28.219Z,16.00
2019-05-15T11:55:55.798Z,16.20
2019-05-15T11:58:24.269Z,15.30
2019-05-15T12:00:52.999Z,15.10
2019-05-15T12:03:24.893Z,14.60
2019-05-15T12:05:51.919Z,14.40
2019-05-15T12:08:20.408Z,14.10
2019-05-15T12:10:48.871Z,14.20
2019-05-15T12:13:18.878Z,14.30
2019-05-15T12:15:48.513Z,14.50
2019-05-15T12:18:17.131Z,14.60
2019-05-15T12:20:48.313Z,14.70
2019-05-15T12:23:16.136Z,14.80
2019-05-15T12:25:44.607Z,14.80
2019-05-15T12:28:13.067Z,14.40
2019-05-15T12:30:41.573Z,14.10
2019-05-15T12:33:10.043Z,14.00
2019-05-15T12:35:39.810Z,13.90
2019-05-15T12:38:10.200Z,13.90
2019-05-15T13:00:40.832Z,13.20
2019-05-15T13:03:09.348Z,13.30
2019-05-15T13:05:39.171Z,13.40
2019-05-15T13:08:08.560Z,13.30
2019-05-15T13:10:38.372Z,13.00
2019-05-15T13:13:09.420Z,13.00
2019-05-15T13:15:40.812Z,12.60
2019-05-15T13:18:13.476Z,12.60
2019-05-15T13:20:38.352Z,12.50
2019-05-15T13:23:08.044Z,12.50
2019-05-15T13:25:38.999Z,12.30
2019-05-15T13:28:08.597Z,12.40
2019-05-15T13:30:40.436Z,12.50
2019-05-15T13:33:09.879Z,12.40
2019-05-15T13:35:38.082Z,12.30
2019-05-15T13:38:09.537Z,12.50
2019-05-15T13:40:41.065Z,12.50
2019-05-15T13:43:08.328Z,12.50
2019-05-15T13:45:38.790Z,12.50
2019-05-15T13:48:08.792Z,12.50
2019-05-15T13:50:40.393Z,12.30
2019-05-15T13:53:10.665Z,12.40
2019-05-15T13:55:42.347Z,12.40
2019-05-15T13:58:08.938Z,12.20
2019-05-15T14:00:39.082Z,11.90
2019-05-15T14:03:09.181Z,12.00
2019-05-15T14:05:38.350Z,11.90
2019-05-15T14:08:07.362Z,11.90
2019-05-15T14:10:38.332Z,12.00
2019-05-15T14:13:06.052Z,11.90
2019-05-15T14:15:34.918Z,11.80
2019-05-15T14:20:38.735Z,12.00
2019-05-15T14:23:08.681Z,12.00
2019-05-15T14:25:38.802Z,11.80
2019-05-15T14:28:08.932Z,11.60
2019-05-15T14:30:37.349Z,11.60
2019-05-15T14:33:08.208Z,11.40
2019-05-15T14:35:37.991Z,11.40
2019-05-15T14:38:07.538Z,11.30
2019-05-15T14:40:36.327Z,11.40
2019-05-15T14:43:05.081Z,11.50
2019-05-15T14:45:33.546Z,11.20
2019-05-15T14:48:02.054Z,11.40
2019-05-15T14:50:30.698Z,11.40
2019-05-15T14:52:59.164Z,11.40
2019-05-15T14:55:33.245Z,11.40
2019-05-15T14:57:58.901Z,11.40
2019-05-15T15:00:34.156Z,11.40
2019-05-15T15:02:59.054Z,11.30
2019-05-15T15:05:27.901Z,11.10
2019-05-15T15:07:58.598Z,11.10
2019-05-15T15:10:28.912Z,11.20
2019-05-15T15:12:58.633Z,11.10
2019-05-15T15:15:28.786Z,11.30
2019-05-15T15:17:58.330Z,11.50
2019-05-15T15:20:28.528Z,11.50
2019-05-15T15:22:58.786Z,11.40
2019-05-15T15:25:27.358Z,11.30
2019-05-15T15:27:58.454Z,11.20
2019-05-15T15:30:26.292Z,11.10
2019-05-15T15:32:54.822Z,11.20
2019-05-15T15:35:23.378Z,11.30
2019-05-15T15:37:51.914Z,11.20
2019-05-15T15:40:20.531Z,11.40
2019-05-15T15:42:49.081Z,11.40
2019-05-15T15:45:19.323Z,11.20
2019-05-15T15:47:48.172Z,11.10
2019-05-15T15:50:18.283Z,11.30
2019-05-15T15:52:48.882Z,11.40
2019-05-15T15:55:18.511Z,11.20
2019-05-15T15:57:48.714Z,11.10
2019-05-15T16:00:18.305Z,11.10
2019-05-15T16:02:48.410Z,11.10
2019-05-15T16:05:19.121Z,11.10
2019-05-15T16:07:48.524Z,11.00
2019-05-15T16:10:18.956Z,11.00
2019-05-15T16:12:49.272Z,10.90
2019-05-15T16:15:18.093Z,10.90
2019-05-15T16:17:48.633Z,10.60
2019-05-15T16:20:18.900Z,10.70
2019-05-15T16:22:48.622Z,10.40
2019-05-15T16:25:18.438Z,10.50
2019-05-15T16:27:48.830Z,10.40
2019-05-15T16:30:18.728Z,10.40
2019-05-15T16:32:47.409Z,10.50
2019-05-15T16:35:18.305Z,10.40
2019-05-15T16:37:49.012Z,10.40
2019-05-15T16:40:18.332Z,10.40
2019-05-15T16:42:48.842Z,10.30
2019-05-15T16:45:17.270Z,10.30
2019-05-15T16:47:47.888Z,10.40
2019-05-15T16:50:18.019Z,10.30
2019-05-15T16:52:48.858Z,10.30
2019-05-15T16:55:17.098Z,10.40
2019-05-15T16:57:47.800Z,10.30
2019-05-15T17:00:18.492Z,9.90
2019-05-15T17:02:48.283Z,9.90
2019-05-15T17:05:18.551Z,10.10
2019-05-15T17:07:48.816Z,10.10
2019-05-15T17:10:17.626Z,10.10
2019-05-15T17:12:46.238Z,10.10
2019-05-15T17:15:15.207Z,10.20
2019-05-15T17:17:43.647Z,10.20
2019-05-15T17:20:12.401Z,10.20
2019-05-15T17:22:40.879Z,10.00
2019-05-15T17:25:09.712Z,10.00
2019-05-15T17:27:38.326Z,10.00
2019-05-15T17:30:09.337Z,10.10
2019-05-15T17:32:38.872Z,10.00
2019-05-15T17:35:10.068Z,10.00
2019-05-15T17:37:38.863Z,9.90
2019-05-15T17:40:08.570Z,9.80
2019-05-15T17:42:38.862Z,9.80
2019-05-15T17:45:09.211Z,9.80
2019-05-15T17:47:38.854Z,9.70
2019-05-15T17:50:08.627Z,9.80
2019-05-15T17:52:38.854Z,9.80
2019-05-15T17:55:07.473Z,9.60
2019-05-15T17:57:38.304Z,9.80
2019-05-15T18:00:11.584Z,9.70
2019-05-15T18:02:38.124Z,9.60
2019-05-15T18:05:07.673Z,9.50
2019-05-15T18:07:38.702Z,9.50
2019-05-15T18:10:08.418Z,9.60
2019-05-15T18:12:38.791Z,9.50
2019-05-15T18:15:09.257Z,9.50
2019-05-15T18:17:39.189Z,9.40
2019-05-15T18:20:09.858Z,9.40
2019-05-15T18:22:38.715Z,9.40
2019-05-15T18:25:09.140Z,9.40
2019-05-15T18:27:38.786Z,9.30
2019-05-15T18:30:09.411Z,9.20
2019-05-15T18:32:39.239Z,9.00
2019-05-15T18:35:08.403Z,9.00
2019-05-15T18:37:39.435Z,8.90
2019-05-15T18:40:09.934Z,9.00
2019-05-15T18:42:38.892Z,8.80
2019-05-15T18:45:08.939Z,8.80
2019-05-15T18:47:38.957Z,8.80
2019-05-15T18:50:13.167Z,8.80
2019-05-15T18:52:39.671Z,8.80
2019-05-15T18:55:09.521Z,8.90
2019-05-15T18:57:38.724Z,8.80
2019-05-15T19:00:09.147Z,8.90
2019-05-15T19:02:39.357Z,8.70
2019-05-15T19:05:08.474Z,8.70
2019-05-15T19:07:38.260Z,8.70
2019-05-15T19:10:10.554Z,8.70
2019-05-15T19:12:39.122Z,8.70
2019-05-15T19:15:09.363Z,8.70
2019-05-15T19:17:38.795Z,8.60
2019-05-15T19:20:08.544Z,8.50
2019-05-15T19:22:40.711Z,8.50
2019-05-15T19:25:08.877Z,8.50
2019-05-15T19:27:39.273Z,8.50
2019-05-15T19:30:08.590Z,8.50
2019-05-15T19:32:38.728Z,8.50
2019-05-15T19:35:08.114Z,8.70
2019-05-15T19:37:38.358Z,8.60
2019-05-15T19:40:07.755Z,8.60
2019-05-15T19:42:38.395Z,8.50
2019-05-15T19:45:09.008Z,8.50
2019-05-15T19:47:38.697Z,8.30
2019-05-15T19:50:09.407Z,8.40
2019-05-15T19:52:37.937Z,8.40
2019-05-15T19:55:08.933Z,8.30
2019-05-15T19:57:39.049Z,8.50
2019-05-15T20:00:08.698Z,8.40
2019-05-15T20:02:38.058Z,8.20
2019-05-15T20:05:09.095Z,8.20
2019-05-15T20:07:39.054Z,8.30
2019-05-15T20:10:09.170Z,8.30
2019-05-15T20:12:38.910Z,8.30
2019-05-15T20:15:09.228Z,8.40
2019-05-15T20:17:38.604Z,8.30
2019-05-15T20:20:08.980Z,8.40
2019-05-15T20:22:40.295Z,8.20
2019-05-15T20:25:08.368Z,8.10
2019-05-15T20:27:39.228Z,8.10
2019-05-15T20:30:08.645Z,8.10
2019-05-15T20:32:38.603Z,8.10
2019-05-15T20:35:08.669Z,8.20
2019-05-15T20:37:39.086Z,8.20
2019-05-15T20:40:09.573Z,8.20
2019-05-15T20:42:38.598Z,8.20
2019-05-15T20:45:12.012Z,8.00
2019-05-15T20:47:39.301Z,8.20
2019-05-15T20:50:08.965Z,8.20
2019-05-15T20:52:39.408Z,8.10
2019-05-15T20:55:08.676Z,8.10
2019-05-15T20:57:40.561Z,8.10
2019-05-15T21:00:10.474Z,8.10
2019-05-15T21:02:39.135Z,8.10
2019-05-15T21:05:08.861Z,8.00
2019-05-15T21:07:40.006Z,8.00
2019-05-15T21:10:10.026Z,8.10
2019-05-15T21:12:41.069Z,8.10
2019-05-15T21:15:09.613Z,8.10
2019-05-15T21:17:39.840Z,8.20
2019-05-15T21:20:09.409Z,8.10
2019-05-15T21:22:40.393Z,8.10
2019-05-15T21:25:10.925Z,8.10
2019-05-15T21:27:42.030Z,8.20
2019-05-15T21:30:10.716Z,8.10
2019-05-15T21:32:39.210Z,8.10
2019-05-15T21:35:09.169Z,8.00
2019-05-15T21:37:39.011Z,8.00
2019-05-15T21:40:09.126Z,7.90
2019-05-15T21:42:39.086Z,7.80
2019-05-15T21:45:14.260Z,7.70
2019-05-15T21:47:38.896Z,7.70
2019-05-15T21:50:08.327Z,7.70
2019-05-15T21:52:38.958Z,7.60
2019-05-15T21:55:09.233Z,7.60
2019-05-15T21:57:40.354Z,7.70
2019-05-15T22:00:11.647Z,7.60
2019-05-15T22:02:40.332Z,7.50
2019-05-15T22:05:08.890Z,7.60
2019-05-15T22:07:38.830Z,7.60
2019-05-15T22:10:10.389Z,7.60
2019-05-15T22:12:38.266Z,7.60
2019-05-15T22:15:08.952Z,7.60
2019-05-15T22:17:38.602Z,7.60
2019-05-15T22:20:08.845Z,7.80
2019-05-15T22:22:37.470Z,7.50
2019-05-15T22:25:10.789Z,7.50
2019-05-15T22:27:38.353Z,7.60
2019-05-15T22:30:08.294Z,7.60
2019-05-15T22:32:38.666Z,7.70
2019-05-15T22:35:13.970Z,7.70
2019-05-15T22:37:41.740Z,7.70
2019-05-15T22:40:10.864Z,7.40
2019-05-15T22:42:39.504Z,7.40
2019-05-15T22:45:11.611Z,7.50
2019-05-15T22:47:39.249Z,7.50
2019-05-15T22:50:08.686Z,7.40
2019-05-15T22:52:38.960Z,7.40
2019-05-15T22:55:08.269Z,7.40
2019-05-15T22:57:38.850Z,7.50
2019-05-15T23:00:08.757Z,7.40
2019-05-15T23:02:37.272Z,7.40
2019-05-15T23:05:23.198Z,7.20
2019-05-15T23:07:39.243Z,7.30
2019-05-15T23:10:08.892Z,7.30
2019-05-15T23:12:38.285Z,7.10
2019-05-15T23:15:08.698Z,7.10
2019-05-15T23:17:38.280Z,7.10
2019-05-15T23:20:08.920Z,7.20
2019-05-15T23:22:38.530Z,7.20
2019-05-15T23:25:07.845Z,7.30
2019-05-15T23:27:38.174Z,7.40
2019-05-15T23:30:08.972Z,7.20
2019-05-15T23:32:39.043Z,7.20
2019-05-15T23:35:07.751Z,7.30
2019-05-15T23:37:39.048Z,7.10
2019-05-15T23:40:08.787Z,7.20
2019-05-15T23:42:39.019Z,7.00
2019-05-15T23:45:08.255Z,7.20
2019-05-15T23:47:38.448Z,7.10
2019-05-15T23:50:07.484Z,7.10
2019-05-15T23:52:38.345Z,7.20
2019-05-15T23:55:08.550Z,7.20
2019-05-15T23:57:39.200Z,7.20
